Terminal Aerodrome Forecast
Issued by NWS Cleveland, OH

Home | Current Version | Previous Version | Graphics & Text | Print | Product List | Glossary On
Versions: 1 2 3 4 5 6 7 8 9 10 11 12 13 14 15 16 17 18
711
FTUS41 KCLE 181738 AAA
TAFERI
TAF AMD
KERI 181738Z 1818/1918 05018G30KT P6SM FEW120 SCT200
     FM182000 05015G28KT P6SM SCT080 BKN200
     FM190200 10012KT P6SM OVC080
     FM190800 12012G22KT P6SM VCSH BKN025 OVC050
     FM191200 15015G25KT P6SM BKN015 OVC050
     FM191700 17012G22KT P6SM SCT035 BKN045=

USA.gov is the U.S. government's official web portal to all federal, state and local government web resources and services.